createdAt,value
2023-02-04T00:00:20.194Z,2.77
2023-02-04T00:01:17.023Z,3.37
2023-02-04T00:02:13.937Z,3.49
2023-02-04T00:03:11.001Z,1.43
2023-02-04T00:04:07.816Z,3.42
2023-02-04T00:05:04.826Z,3.22
2023-02-04T00:06:01.607Z,3.40
2023-02-04T00:06:58.418Z,3.31
2023-02-04T00:08:02.552Z,3.23
2023-02-04T00:08:59.349Z,3.21
2023-02-04T00:09:56.182Z,2.81
2023-02-04T00:10:53.037Z,3.20
2023-02-04T00:11:49.842Z,2.64
2023-02-04T00:12:49.092Z,3.04
2023-02-04T00:13:45.944Z,2.90
2023-02-04T00:14:45.973Z,2.89
2023-02-04T00:15:43.002Z,2.70
2023-02-04T00:16:41.553Z,0.99
2023-02-04T00:17:39.603Z,1.33
2023-02-04T00:18:37.652Z,1.51
2023-02-04T00:19:35.668Z,2.30
2023-02-04T00:20:32.830Z,1.19
2023-02-04T00:21:29.729Z,2.14
2023-02-04T00:22:29.449Z,2.33
2023-02-04T00:23:26.336Z,1.83
2023-02-04T00:24:23.086Z,2.72
2023-02-04T00:25:19.878Z,2.95
2023-02-04T00:26:16.966Z,2.08
2023-02-04T00:27:13.861Z,2.61
2023-02-04T00:28:10.650Z,1.85
2023-02-04T00:29:07.372Z,3.10
2023-02-04T00:30:06.167Z,3.13
2023-02-04T00:31:03.020Z,2.89
2023-02-04T00:32:00.210Z,2.80
2023-02-04T00:32:57.123Z,2.48
2023-02-04T00:33:53.927Z,2.03
2023-02-04T00:34:51.147Z,1.91
2023-02-04T00:35:47.974Z,2.91
2023-02-04T00:36:44.982Z,1.37
2023-02-04T00:37:41.829Z,2.78
2023-02-04T00:38:38.716Z,2.64
2023-02-04T00:39:36.882Z,2.84
2023-02-04T00:40:36.424Z,2.55
2023-02-04T00:41:33.217Z,2.88
2023-02-04T00:42:30.260Z,3.16
2023-02-04T00:43:27.083Z,2.20
2023-02-04T00:44:23.948Z,2.86
2023-02-04T00:45:20.897Z,1.01
2023-02-04T00:46:17.736Z,2.88
2023-02-04T00:47:14.647Z,1.23
2023-02-04T00:48:11.453Z,1.21
2023-02-04T00:49:10.678Z,3.22
2023-02-04T00:50:07.700Z,3.26
2023-02-04T00:51:04.596Z,2.40
2023-02-04T00:52:01.781Z,3.29
2023-02-04T00:53:01.891Z,-0.24
2023-02-04T00:53:58.592Z,0.39
2023-02-04T00:54:55.381Z,1.04
2023-02-04T00:55:52.187Z,3.26
2023-02-04T00:56:51.865Z,2.79
2023-02-04T00:57:54.516Z,2.43
2023-02-04T00:58:56.672Z,1.77
2023-02-04T00:59:53.510Z,3.51
2023-02-04T01:00:50.545Z,2.97
2023-02-04T01:01:47.775Z,2.69
2023-02-04T01:02:44.743Z,3.98
2023-02-04T01:03:41.699Z,3.97
2023-02-04T01:04:38.699Z,3.98
2023-02-04T01:05:35.687Z,3.90
2023-02-04T01:06:33.160Z,3.96
2023-02-04T01:07:30.129Z,4.03
2023-02-04T01:08:26.916Z,3.56
2023-02-04T01:09:26.022Z,3.49
2023-02-04T01:10:23.159Z,3.04
2023-02-04T01:11:20.202Z,4.57
2023-02-04T01:12:17.362Z,4.55
2023-02-04T01:13:14.382Z,3.44
2023-02-04T01:14:13.702Z,2.90
2023-02-04T01:15:11.112Z,4.68
2023-02-04T01:16:08.101Z,1.30
2023-02-04T01:17:07.467Z,4.74
2023-02-04T01:18:04.409Z,4.15
2023-02-04T01:19:01.227Z,3.90
2023-02-04T01:19:57.984Z,3.99
2023-02-04T01:20:57.652Z,2.92
2023-02-04T01:21:54.564Z,4.90
2023-02-04T01:22:51.538Z,4.81
2023-02-04T01:23:50.155Z,3.19
2023-02-04T01:24:47.085Z,4.50
2023-02-04T01:25:44.099Z,2.02
2023-02-04T01:26:40.889Z,2.38
2023-02-04T01:27:37.755Z,3.96
2023-02-04T01:28:34.618Z,3.54
2023-02-04T01:29:31.445Z,2.47
2023-02-04T01:30:30.424Z,4.43
2023-02-04T01:31:29.575Z,4.45
2023-02-04T01:32:26.556Z,3.81
2023-02-04T01:33:23.410Z,4.23
2023-02-04T01:34:20.209Z,4.79
2023-02-04T01:35:17.148Z,3.77
2023-02-04T01:36:14.083Z,4.74
2023-02-04T01:37:10.931Z,4.21
2023-02-04T01:38:07.629Z,4.15
2023-02-04T01:39:04.398Z,4.22
2023-02-04T01:40:01.161Z,4.22
2023-02-04T01:40:58.823Z,4.63
2023-02-04T01:41:55.754Z,4.34
2023-02-04T01:42:53.698Z,4.18
2023-02-04T01:43:50.605Z,4.87
2023-02-04T01:44:47.983Z,4.16
2023-02-04T01:45:50.229Z,2.90
2023-02-04T01:46:47.376Z,4.76
2023-02-04T01:47:46.044Z,5.10
2023-02-04T01:48:43.419Z,4.12
2023-02-04T01:49:40.466Z,4.63
2023-02-04T01:50:37.254Z,4.61
2023-02-04T01:51:37.761Z,4.47
2023-02-04T01:52:40.050Z,4.90
2023-02-04T01:53:38.114Z,3.91
2023-02-04T01:54:36.722Z,3.93
2023-02-04T01:55:34.233Z,3.20
2023-02-04T01:56:31.352Z,5.37
2023-02-04T01:57:28.620Z,5.12
2023-02-04T01:58:25.577Z,5.17
2023-02-04T01:59:23.304Z,4.60
2023-02-04T02:00:29.782Z,3.77
2023-02-04T02:01:53.903Z,5.21
2023-02-04T02:02:52.526Z,5.40
2023-02-04T02:03:49.313Z,4.83
2023-02-04T02:04:46.049Z,5.30
2023-02-04T02:05:50.578Z,5.02
2023-02-04T02:06:53.902Z,5.38
2023-02-04T02:07:54.088Z,5.34
2023-02-04T02:08:51.029Z,4.89
2023-02-04T02:09:50.923Z,5.55
2023-02-04T02:10:49.597Z,4.29
2023-02-04T02:11:47.052Z,5.62
2023-02-04T02:12:45.240Z,4.17
2023-02-04T02:13:42.309Z,5.78
2023-02-04T02:14:39.158Z,5.60
2023-02-04T02:15:35.972Z,4.79
2023-02-04T02:16:33.370Z,5.61
2023-02-04T02:17:30.786Z,5.05
2023-02-04T02:18:27.680Z,5.51
2023-02-04T02:19:33.693Z,4.60
2023-02-04T02:20:31.053Z,4.04
2023-02-04T02:21:42.896Z,4.79
2023-02-04T02:23:12.590Z,5.66
2023-02-04T02:24:24.286Z,5.68
2023-02-04T02:25:21.824Z,4.11
2023-02-04T02:26:22.141Z,5.64
2023-02-04T02:27:20.104Z,5.76
2023-02-04T02:28:21.556Z,5.48
2023-02-04T02:29:18.781Z,5.10
2023-02-04T02:30:19.945Z,4.24
2023-02-04T02:31:20.447Z,5.33
2023-02-04T02:32:18.327Z,5.13
2023-02-04T02:33:20.136Z,4.07
2023-02-04T02:34:16.977Z,4.83
2023-02-04T02:35:15.825Z,5.43
2023-02-04T02:36:12.750Z,5.60
2023-02-04T02:37:10.302Z,5.08
2023-02-04T02:38:07.178Z,5.22
2023-02-04T02:39:04.369Z,5.22
2023-02-04T02:40:01.379Z,4.75
2023-02-04T02:40:59.512Z,5.69
2023-02-04T02:41:58.730Z,5.52
2023-02-04T02:42:55.818Z,5.53
2023-02-04T02:43:52.677Z,5.19
2023-02-04T02:44:51.628Z,5.01
2023-02-04T02:45:50.018Z,4.96
2023-02-04T02:46:47.040Z,5.51
2023-02-04T02:47:43.921Z,4.85
2023-02-04T02:48:40.693Z,5.13
2023-02-04T02:49:39.866Z,5.56
2023-02-04T02:50:37.910Z,4.83
2023-02-04T02:51:34.732Z,4.64
2023-02-04T02:52:31.527Z,5.28
2023-02-04T02:53:28.452Z,1.68
2023-02-04T02:54:29.754Z,5.46
2023-02-04T02:55:28.821Z,5.12
2023-02-04T02:56:25.724Z,5.55
2023-02-04T02:57:23.898Z,5.61
2023-02-04T02:58:33.722Z,4.90
2023-02-04T02:59:30.474Z,5.34
2023-02-04T03:00:30.155Z,5.32
2023-02-04T03:01:27.420Z,5.47
2023-02-04T03:02:24.573Z,4.86
2023-02-04T03:03:30.358Z,4.99
2023-02-04T03:04:31.898Z,5.17
2023-02-04T03:05:34.050Z,4.63
2023-02-04T03:06:30.806Z,5.29
2023-02-04T03:07:27.690Z,5.46
2023-02-04T03:08:25.083Z,5.12
2023-02-04T03:09:24.543Z,4.32
2023-02-04T03:10:21.381Z,4.60
2023-02-04T03:11:18.203Z,5.62
2023-02-04T03:12:15.429Z,4.75
2023-02-04T03:13:16.251Z,4.84
2023-02-04T03:14:13.097Z,4.87
2023-02-04T03:15:10.857Z,5.29
2023-02-04T03:16:08.918Z,5.48
2023-02-04T03:17:10.542Z,5.48
2023-02-04T03:18:08.201Z,4.62
2023-02-04T03:19:08.493Z,5.75
2023-02-04T03:20:06.045Z,5.61
2023-02-04T03:21:04.987Z,5.95
2023-02-04T03:22:04.520Z,5.98
2023-02-04T03:23:01.520Z,5.53
2023-02-04T03:23:58.672Z,6.19
2023-02-04T03:24:58.421Z,6.00
2023-02-04T03:25:55.240Z,6.02
2023-02-04T03:26:52.560Z,5.43
2023-02-04T03:27:49.456Z,5.34
2023-02-04T03:28:46.266Z,6.04
2023-02-04T03:29:45.054Z,5.87
2023-02-04T03:30:41.948Z,4.61
2023-02-04T03:31:39.218Z,4.06
2023-02-04T03:32:35.985Z,5.48
2023-02-04T03:33:34.060Z,5.13
2023-02-04T03:34:32.040Z,3.71
2023-02-04T03:35:28.975Z,4.94
2023-02-04T03:36:25.813Z,5.55
2023-02-04T03:37:22.635Z,5.59
2023-02-04T03:38:20.159Z,4.96
2023-02-04T03:39:17.106Z,5.07
2023-02-04T03:40:13.958Z,5.63
2023-02-04T03:41:10.677Z,4.80
2023-02-04T03:42:10.490Z,5.70
2023-02-04T03:43:07.345Z,5.15
2023-02-04T03:44:04.326Z,5.16
2023-02-04T03:45:01.165Z,5.05
2023-02-04T03:45:57.925Z,5.34
2023-02-04T03:46:55.677Z,4.96
2023-02-04T03:47:52.473Z,4.83
2023-02-04T03:48:49.557Z,4.86
2023-02-04T03:49:46.309Z,4.32
2023-02-04T03:50:43.105Z,5.01
2023-02-04T03:51:39.928Z,4.39
2023-02-04T03:52:36.800Z,4.78
2023-02-04T03:53:35.805Z,4.78
2023-02-04T03:54:32.605Z,3.26
2023-02-04T03:55:29.408Z,4.51
2023-02-04T03:56:26.225Z,2.96
2023-02-04T03:57:23.061Z,4.58
2023-02-04T03:58:20.147Z,3.98
2023-02-04T03:59:17.074Z,4.86
2023-02-04T04:00:17.400Z,4.75
2023-02-04T04:01:21.925Z,5.06
2023-02-04T04:02:18.770Z,4.65
2023-02-04T04:03:15.900Z,4.62
2023-02-04T04:04:12.740Z,5.61
2023-02-04T04:05:10.562Z,5.74
2023-02-04T04:06:10.002Z,5.82
2023-02-04T04:07:07.067Z,3.49
2023-02-04T04:08:03.968Z,5.55
2023-02-04T04:09:00.749Z,5.47
2023-02-04T04:09:57.585Z,4.92
2023-02-04T04:10:54.410Z,5.69
2023-02-04T04:11:51.250Z,5.80
2023-02-04T04:12:48.038Z,5.54
2023-02-04T04:13:44.928Z,5.07
2023-02-04T04:14:41.650Z,5.60
2023-02-04T04:15:38.392Z,5.80
2023-02-04T04:16:35.292Z,5.70
2023-02-04T04:17:32.189Z,2.12
2023-02-04T04:18:28.914Z,4.89
2023-02-04T04:19:25.803Z,5.83
2023-02-04T04:20:25.542Z,5.74
2023-02-04T04:21:22.387Z,5.52
2023-02-04T04:22:19.264Z,5.90
2023-02-04T04:23:16.105Z,5.52
2023-02-04T04:24:12.812Z,5.86
2023-02-04T04:25:09.720Z,6.07
2023-02-04T04:26:06.556Z,6.29
2023-02-04T04:27:03.447Z,5.92
2023-02-04T04:28:00.292Z,5.86
2023-02-04T04:28:57.067Z,5.24
2023-02-04T04:29:53.913Z,5.43
2023-02-04T04:30:50.795Z,5.44
2023-02-04T04:31:47.657Z,5.97
2023-02-04T04:32:44.459Z,6.20
2023-02-04T04:33:41.185Z,5.96
2023-02-04T04:34:38.104Z,5.87
2023-02-04T04:35:37.594Z,6.03
2023-02-04T04:36:34.404Z,6.19
2023-02-04T04:37:31.362Z,5.51
2023-02-04T04:38:28.164Z,5.76
2023-02-04T04:39:26.398Z,5.77
2023-02-04T04:40:23.430Z,5.36
2023-02-04T04:41:20.249Z,5.58
2023-02-04T04:42:17.081Z,4.99
2023-02-04T04:43:13.978Z,4.96
2023-02-04T04:44:10.706Z,4.89
2023-02-04T04:45:09.939Z,5.12
2023-02-04T04:46:06.840Z,5.86
2023-02-04T04:47:03.754Z,5.04
2023-02-04T04:48:00.642Z,4.21
2023-02-04T04:48:57.374Z,5.95
2023-02-04T04:49:54.154Z,5.15
2023-02-04T04:50:51.207Z,5.19
2023-02-04T04:51:47.982Z,5.93
2023-02-04T04:52:44.778Z,4.78
2023-02-04T04:53:44.492Z,5.67
2023-02-04T04:54:41.294Z,4.61
2023-02-04T04:55:38.829Z,4.62
2023-02-04T04:56:35.645Z,5.81
2023-02-04T04:57:32.613Z,4.05
2023-02-04T04:58:29.374Z,4.04
2023-02-04T04:59:26.136Z,5.25
2023-02-04T05:00:23.097Z,5.39
2023-02-04T05:01:21.452Z,4.06
2023-02-04T05:02:18.354Z,4.60
2023-02-04T05:03:15.217Z,4.94
2023-02-04T05:04:12.036Z,4.38
2023-02-04T05:05:08.901Z,4.06
2023-02-04T05:06:05.726Z,5.20
2023-02-04T05:07:02.463Z,4.41
2023-02-04T05:07:59.308Z,5.22
2023-02-04T05:08:56.111Z,5.14
2023-02-04T05:09:52.934Z,4.95
2023-02-04T05:10:49.773Z,4.47
2023-02-04T05:11:47.931Z,5.40
2023-02-04T05:12:44.738Z,4.97
2023-02-04T05:13:41.495Z,4.28
2023-02-04T05:14:38.660Z,4.96
2023-02-04T05:15:36.119Z,4.20
2023-02-04T05:16:32.947Z,3.50
2023-02-04T05:17:29.789Z,4.05
2023-02-04T05:18:26.543Z,3.80
2023-02-04T05:19:23.398Z,4.36
2023-02-04T05:20:20.207Z,4.87
2023-02-04T05:21:17.008Z,3.80
2023-02-04T05:22:13.786Z,4.96
2023-02-04T05:23:10.588Z,5.02
2023-02-04T05:24:07.484Z,4.90
2023-02-04T05:25:04.463Z,4.24
2023-02-04T05:26:01.335Z,4.65
2023-02-04T05:26:58.131Z,4.47
2023-02-04T05:27:55.202Z,1.65
2023-02-04T05:28:51.988Z,4.54
2023-02-04T05:29:48.955Z,4.39
2023-02-04T05:30:45.937Z,4.76
2023-02-04T05:31:42.822Z,3.80
2023-02-04T05:32:40.296Z,3.12
2023-02-04T05:33:37.125Z,5.14
2023-02-04T05:34:33.984Z,4.76
2023-02-04T05:35:30.803Z,4.40
2023-02-04T05:36:27.768Z,3.76
2023-02-04T05:37:24.747Z,3.81
2023-02-04T05:38:21.447Z,3.46
2023-02-04T05:39:18.443Z,4.77
2023-02-04T05:40:15.325Z,3.84
2023-02-04T05:41:12.798Z,4.68
2023-02-04T05:42:09.531Z,4.57
2023-02-04T05:43:06.474Z,3.26
2023-02-04T05:44:03.588Z,4.54
2023-02-04T05:45:00.479Z,4.27
2023-02-04T05:45:57.945Z,4.44
2023-02-04T05:46:54.807Z,4.36
2023-02-04T05:47:53.423Z,2.71
2023-02-04T05:48:50.336Z,4.47
2023-02-04T05:49:47.073Z,4.06
2023-02-04T05:50:43.823Z,4.50
2023-02-04T05:51:40.979Z,4.37
2023-02-04T05:52:37.787Z,4.02
2023-02-04T05:53:34.511Z,4.54
2023-02-04T05:54:31.310Z,4.15
2023-02-04T05:55:28.105Z,4.23
2023-02-04T05:56:25.475Z,4.25
2023-02-04T05:57:22.258Z,4.20
2023-02-04T05:58:19.217Z,4.11
2023-02-04T05:59:15.996Z,3.22
2023-02-04T06:00:13.464Z,4.09
2023-02-04T06:01:10.285Z,3.60
2023-02-04T06:02:07.365Z,3.70
2023-02-04T06:03:04.360Z,3.88
2023-02-04T06:04:01.162Z,4.35
2023-02-04T06:04:57.996Z,2.68
2023-02-04T06:05:57.214Z,4.61
2023-02-04T06:06:54.001Z,3.12
2023-02-04T06:08:11.050Z,3.77
2023-02-04T06:09:07.834Z,3.32
2023-02-04T06:10:04.960Z,3.91
2023-02-04T06:11:04.202Z,4.19
2023-02-04T06:12:00.920Z,4.36
2023-02-04T06:12:57.666Z,3.93
2023-02-04T06:13:54.551Z,3.58
2023-02-04T06:14:51.307Z,4.61
2023-02-04T06:15:48.208Z,4.25
2023-02-04T06:16:44.990Z,4.81
2023-02-04T06:17:42.011Z,4.49
2023-02-04T06:18:38.770Z,4.96
2023-02-04T06:19:35.615Z,4.57
2023-02-04T06:20:32.676Z,4.80
2023-02-04T06:21:29.654Z,3.89
2023-02-04T06:22:29.506Z,4.36
2023-02-04T06:23:28.200Z,4.25
2023-02-04T06:24:24.969Z,4.61
2023-02-04T06:25:22.360Z,4.91
2023-02-04T06:26:19.284Z,5.09
2023-02-04T06:27:23.218Z,4.75
2023-02-04T06:28:20.083Z,4.92
2023-02-04T06:29:16.953Z,5.03
2023-02-04T06:30:14.536Z,4.71
2023-02-04T06:31:11.559Z,4.64
2023-02-04T06:32:08.485Z,4.24
2023-02-04T06:33:06.767Z,4.42
2023-02-04T06:34:03.550Z,4.51
2023-02-04T06:35:03.551Z,4.20
2023-02-04T06:36:03.974Z,4.64
2023-02-04T06:37:03.593Z,0.93
2023-02-04T06:38:04.048Z,4.44
2023-02-04T06:39:11.149Z,4.08
2023-02-04T06:40:15.500Z,4.63
2023-02-04T06:41:12.316Z,5.05
2023-02-04T06:42:11.889Z,4.85
2023-02-04T06:43:11.306Z,4.45
2023-02-04T06:44:08.119Z,4.82
2023-02-04T06:45:05.469Z,5.12
2023-02-04T06:46:03.777Z,5.07
2023-02-04T06:47:00.622Z,4.56
2023-02-04T06:48:00.624Z,4.50
2023-02-04T06:48:59.418Z,4.02
2023-02-04T06:49:59.168Z,5.23
2023-02-04T06:50:59.019Z,5.42
2023-02-04T06:51:55.938Z,5.90
2023-02-04T06:52:52.695Z,4.75
2023-02-04T06:53:51.806Z,5.53
2023-02-04T06:54:48.659Z,4.59
2023-02-04T06:55:45.602Z,5.71
2023-02-04T06:56:43.726Z,4.67
2023-02-04T06:57:40.516Z,6.19
2023-02-04T06:58:37.745Z,5.90
2023-02-04T06:59:36.865Z,6.02
2023-02-04T07:00:34.122Z,5.80
2023-02-04T07:01:33.869Z,5.87
2023-02-04T07:02:30.724Z,5.59
2023-02-04T07:03:27.543Z,4.93
2023-02-04T07:04:24.312Z,6.06
2023-02-04T07:05:24.293Z,5.97
2023-02-04T07:06:23.472Z,5.34
2023-02-04T07:07:22.614Z,6.15
2023-02-04T07:08:19.514Z,6.08
2023-02-04T07:09:19.170Z,6.30
2023-02-04T07:10:17.566Z,5.81
2023-02-04T07:11:14.389Z,6.25
2023-02-04T07:12:16.202Z,6.18
2023-02-04T07:13:13.173Z,6.06
2023-02-04T07:14:12.856Z,5.42
2023-02-04T07:15:10.348Z,4.70
2023-02-04T07:16:17.828Z,5.85
2023-02-04T07:17:17.563Z,6.24
2023-02-04T07:18:16.992Z,5.70
2023-02-04T07:19:19.614Z,5.99
2023-02-04T07:20:20.578Z,2.21
2023-02-04T07:21:20.627Z,3.63
2023-02-04T07:22:20.268Z,4.12
2023-02-04T07:23:19.382Z,5.71
2023-02-04T07:24:16.151Z,6.04
2023-02-04T07:25:15.111Z,5.34
2023-02-04T07:26:11.839Z,6.01
2023-02-04T07:27:08.591Z,6.17
2023-02-04T07:28:06.132Z,6.03
2023-02-04T07:29:03.052Z,5.68
2023-02-04T07:29:59.966Z,5.92
2023-02-04T07:31:05.774Z,5.52
2023-02-04T07:32:02.747Z,5.15
2023-02-04T07:33:02.643Z,5.67
2023-02-04T07:33:59.421Z,5.91
2023-02-04T07:34:56.237Z,5.78
2023-02-04T07:35:53.076Z,6.32
2023-02-04T07:36:49.902Z,5.55
2023-02-04T07:37:47.204Z,5.76
2023-02-04T07:38:44.043Z,6.40
2023-02-04T07:39:40.929Z,5.82
2023-02-04T07:40:39.233Z,6.31
2023-02-04T07:41:36.628Z,6.49
2023-02-04T07:42:33.393Z,6.56
2023-02-04T07:43:30.173Z,6.21
2023-02-04T07:44:26.941Z,6.51
2023-02-04T07:45:24.530Z,5.78
2023-02-04T07:46:21.412Z,6.22
2023-02-04T07:47:18.210Z,6.22
2023-02-04T07:48:14.938Z,6.51
2023-02-04T07:49:11.822Z,6.33
2023-02-04T07:50:12.389Z,6.49
2023-02-04T07:51:10.580Z,6.86
2023-02-04T07:52:07.655Z,6.66
2023-02-04T07:53:06.360Z,6.01
2023-02-04T07:54:03.165Z,6.59
2023-02-04T07:54:59.931Z,6.28
2023-02-04T07:55:56.742Z,6.65
2023-02-04T07:56:53.520Z,6.12
2023-02-04T07:57:50.591Z,5.64
2023-02-04T07:58:47.420Z,6.57
2023-02-04T07:59:44.203Z,5.93
2023-02-04T08:00:41.025Z,5.19
2023-02-04T08:01:37.907Z,6.66
2023-02-04T08:02:34.761Z,5.30
2023-02-04T08:03:32.860Z,6.50
2023-02-04T08:04:29.976Z,5.53
2023-02-04T08:05:26.733Z,5.50
2023-02-04T08:06:23.485Z,6.03
2023-02-04T08:07:20.354Z,5.78
2023-02-04T08:08:17.100Z,6.10
2023-02-04T08:09:13.978Z,6.23
2023-02-04T08:10:12.246Z,6.09
2023-02-04T08:11:08.968Z,5.31
2023-02-04T08:12:05.910Z,5.99
2023-02-04T08:13:02.727Z,5.09
2023-02-04T08:13:59.488Z,4.53
2023-02-04T08:14:56.382Z,5.79
2023-02-04T08:15:53.184Z,5.99
2023-02-04T08:16:50.069Z,5.89
2023-02-04T08:17:48.851Z,5.88
2023-02-04T08:18:45.683Z,6.03
2023-02-04T08:19:42.555Z,5.60
2023-02-04T08:20:39.393Z,5.50
2023-02-04T08:21:36.538Z,4.85
2023-02-04T08:22:34.441Z,5.63
2023-02-04T08:23:31.218Z,6.44
2023-02-04T08:24:28.044Z,6.56
2023-02-04T08:25:25.172Z,6.14
2023-02-04T08:26:22.091Z,6.00
2023-02-04T08:27:26.464Z,6.76
2023-02-04T08:28:23.321Z,6.07
2023-02-04T08:29:20.549Z,6.55
2023-02-04T08:30:17.710Z,6.38
2023-02-04T08:31:14.556Z,6.26
2023-02-04T08:32:13.327Z,6.34
2023-02-04T08:33:12.434Z,5.47
2023-02-04T08:34:09.331Z,6.11
2023-02-04T08:35:07.995Z,6.22
2023-02-04T08:36:06.801Z,6.39
2023-02-04T08:37:03.651Z,6.46
2023-02-04T08:38:00.630Z,6.49
2023-02-04T08:39:00.906Z,6.45
2023-02-04T08:39:57.951Z,5.87
2023-02-04T08:40:54.770Z,6.41
2023-02-04T08:41:51.608Z,6.49
2023-02-04T08:42:48.419Z,5.74
2023-02-04T08:43:45.274Z,5.98
2023-02-04T08:44:44.819Z,5.85
2023-02-04T08:45:41.671Z,6.03
2023-02-04T08:46:38.531Z,4.71
2023-02-04T08:47:35.819Z,5.69
2023-02-04T08:48:33.105Z,5.77
2023-02-04T08:49:29.890Z,5.55
2023-02-04T08:50:28.817Z,5.35
2023-02-04T08:53:00.503Z,4.55
2023-02-04T08:53:57.335Z,3.14
2023-02-04T08:54:54.259Z,4.03
2023-02-04T08:56:10.491Z,4.34
2023-02-04T08:57:07.320Z,4.22
2023-02-04T08:58:04.178Z,6.31
2023-02-04T08:59:01.142Z,5.76
2023-02-04T09:00:02.153Z,6.23
2023-02-04T09:00:59.093Z,5.49
2023-02-04T09:01:55.918Z,6.56
2023-02-04T09:02:53.063Z,6.20
2023-02-04T09:03:52.782Z,5.52
2023-02-04T09:04:52.133Z,3.77
2023-02-04T09:05:52.295Z,6.43
2023-02-04T09:06:53.646Z,3.64
2023-02-04T09:07:50.459Z,6.30
2023-02-04T09:08:49.141Z,6.76
2023-02-04T09:09:45.944Z,6.28
2023-02-04T09:10:42.900Z,6.07
2023-02-04T09:11:50.170Z,6.63
2023-02-04T09:12:47.173Z,6.43
2023-02-04T09:13:46.928Z,5.75
2023-02-04T09:14:47.005Z,6.07
2023-02-04T09:15:43.743Z,4.55
2023-02-04T09:16:40.585Z,4.47
2023-02-04T09:17:39.785Z,5.84
2023-02-04T09:18:36.867Z,6.24
2023-02-04T09:19:40.722Z,5.19
2023-02-04T09:20:39.275Z,6.66
2023-02-04T09:21:36.100Z,6.82
2023-02-04T09:22:32.929Z,6.41
2023-02-04T09:23:32.406Z,4.13
2023-02-04T09:24:31.536Z,6.49
2023-02-04T09:25:28.358Z,6.84
2023-02-04T09:26:27.351Z,5.98
2023-02-04T09:27:26.715Z,5.85
2023-02-04T09:28:23.518Z,6.43
2023-02-04T09:29:23.101Z,6.22
2023-02-04T09:30:24.165Z,6.03
2023-02-04T09:31:21.328Z,5.54
2023-02-04T09:32:27.799Z,5.82
2023-02-04T09:33:24.691Z,6.15
2023-02-04T09:34:28.586Z,5.57
2023-02-04T09:35:27.732Z,5.15
2023-02-04T09:36:30.074Z,4.38
2023-02-04T09:37:31.635Z,4.41
2023-02-04T09:38:28.658Z,3.41
2023-02-04T09:39:32.717Z,5.60
2023-02-04T09:40:34.895Z,4.88
2023-02-04T09:41:35.212Z,3.53
2023-02-04T09:43:02.991Z,5.25
2023-02-04T09:44:08.983Z,2.95
2023-02-04T09:45:17.727Z,3.77
2023-02-04T09:46:50.457Z,5.99
2023-02-04T09:48:03.753Z,6.10
2023-02-04T09:49:02.942Z,3.87
2023-02-04T09:50:10.142Z,4.59
2023-02-04T09:51:20.963Z,5.12
2023-02-04T09:52:27.318Z,1.95
2023-02-04T09:54:04.906Z,3.58
2023-02-04T09:55:16.582Z,1.14
2023-02-04T09:56:14.972Z,2.34
2023-02-04T09:57:23.209Z,5.76
2023-02-04T09:58:22.920Z,5.86
2023-02-04T09:59:30.657Z,2.51
2023-02-04T10:00:31.993Z,4.51
2023-02-04T10:01:32.183Z,5.70
2023-02-04T10:02:31.888Z,3.62
2023-02-04T10:03:36.190Z,6.03
2023-02-04T10:04:35.163Z,4.92
2023-02-04T10:05:36.860Z,6.22
2023-02-04T10:06:33.863Z,4.50
2023-02-04T10:07:33.515Z,5.83
2023-02-04T10:08:41.556Z,5.11
2023-02-04T10:09:40.275Z,5.97
2023-02-04T10:10:40.395Z,6.14
2023-02-04T10:11:46.100Z,5.69
2023-02-04T10:12:46.093Z,2.34
2023-02-04T10:13:47.996Z,3.79
2023-02-04T10:14:45.110Z,5.47
2023-02-04T10:15:42.146Z,4.88
2023-02-04T10:16:47.710Z,6.17
2023-02-04T10:17:52.330Z,5.74
2023-02-04T10:18:49.711Z,4.81
2023-02-04T10:19:46.909Z,4.22
2023-02-04T10:20:43.737Z,4.70
2023-02-04T10:21:47.960Z,5.79
2023-02-04T10:22:50.321Z,4.97
2023-02-04T10:23:57.332Z,3.27
2023-02-04T10:24:54.210Z,3.92
2023-02-04T10:25:51.174Z,5.91
2023-02-04T10:26:50.122Z,5.36
2023-02-04T10:28:03.320Z,5.35
2023-02-04T10:29:16.762Z,5.82
2023-02-04T10:30:48.169Z,3.41
2023-02-04T10:31:48.981Z,3.96
2023-02-04T10:32:47.124Z,3.03
2023-02-04T10:33:52.152Z,1.54
2023-02-04T10:34:51.343Z,4.90
2023-02-04T10:35:53.366Z,2.79
2023-02-04T10:36:57.955Z,3.16
2023-02-04T10:38:06.860Z,4.59
2023-02-04T10:39:11.650Z,5.19
2023-02-04T10:40:29.857Z,5.32
2023-02-04T10:41:31.175Z,1.69
2023-02-04T10:42:37.692Z,1.74
2023-02-04T10:43:38.161Z,1.82
2023-02-04T10:44:42.879Z,6.10
2023-02-04T10:45:39.710Z,6.45
2023-02-04T10:46:36.999Z,5.91
2023-02-04T10:47:38.500Z,6.28
2023-02-04T10:48:41.522Z,5.37
2023-02-04T10:49:41.972Z,2.67
2023-02-04T10:50:38.808Z,1.78
2023-02-04T10:51:46.724Z,4.65
2023-02-04T10:52:49.773Z,3.12
2023-02-04T10:54:05.077Z,3.58
2023-02-04T10:55:08.181Z,5.69
2023-02-04T10:56:16.824Z,3.25
2023-02-04T10:57:40.224Z,5.64
2023-02-04T11:00:45.322Z,3.48
2023-02-04T11:01:52.526Z,4.33
2023-02-04T11:03:34.852Z,4.79
2023-02-04T11:06:41.788Z,3.62
2023-02-04T11:07:31.995Z,2.89
2023-02-04T11:09:06.335Z,4.46
2023-02-04T11:10:07.202Z,3.76
2023-02-04T11:11:22.368Z,1.43
2023-02-04T11:12:42.819Z,6.02
2023-02-04T11:14:03.544Z,6.27
2023-02-04T11:15:19.342Z,6.03
2023-02-04T11:16:23.223Z,6.03
2023-02-04T11:17:24.722Z,6.04
2023-02-04T11:18:25.168Z,5.89
2023-02-04T11:19:38.139Z,5.84
2023-02-04T11:20:39.936Z,5.64
2023-02-04T11:21:36.774Z,6.17
2023-02-04T11:22:49.638Z,6.11
2023-02-04T11:23:51.260Z,5.80
2023-02-04T11:25:03.945Z,1.19
2023-02-04T11:26:10.098Z,6.04
2023-02-04T11:27:35.865Z,3.70
2023-02-04T11:28:57.471Z,4.80
2023-02-04T11:30:20.333Z,1.39
2023-02-04T11:31:23.078Z,5.95
2023-02-04T11:32:36.261Z,5.16
2023-02-04T11:33:48.132Z,3.92
2023-02-04T11:34:49.238Z,5.46
2023-02-04T11:36:00.997Z,5.23
2023-02-04T11:37:27.574Z,5.69
2023-02-04T11:38:30.900Z,6.07
2023-02-04T11:39:36.399Z,6.15
2023-02-04T11:40:38.610Z,3.75
2023-02-04T11:42:22.229Z,3.72
2023-02-04T11:43:04.703Z,6.29
2023-02-04T11:44:05.664Z,3.88
2023-02-04T11:45:27.676Z,5.99
2023-02-04T11:46:28.536Z,5.18
2023-02-04T11:47:27.384Z,5.59
2023-02-04T11:48:24.349Z,5.06
2023-02-04T11:49:23.773Z,5.63
2023-02-04T11:50:25.914Z,6.00
2023-02-04T11:51:37.910Z,5.61
2023-02-04T11:52:36.255Z,5.00
2023-02-04T11:53:36.980Z,5.38
2023-02-04T11:54:33.708Z,5.61
2023-02-04T11:55:34.781Z,6.26
2023-02-04T11:56:31.640Z,6.34
2023-02-04T11:57:29.893Z,6.11
2023-02-04T11:58:33.375Z,6.31
2023-02-04T11:59:30.493Z,6.07
2023-02-04T12:00:33.416Z,6.06
2023-02-04T12:01:35.148Z,5.67
2023-02-04T12:02:46.593Z,5.91
2023-02-04T12:03:53.355Z,5.43
2023-02-04T12:05:16.285Z,6.06
2023-02-04T12:06:27.219Z,4.92
2023-02-04T12:07:34.808Z,5.26
2023-02-04T12:08:35.870Z,5.70
2023-02-04T12:09:32.826Z,4.77
2023-02-04T12:10:34.364Z,5.85
2023-02-04T12:11:31.182Z,4.63
2023-02-04T12:12:30.739Z,5.82
2023-02-04T12:13:30.741Z,5.93
2023-02-04T12:14:39.774Z,6.10
2023-02-04T12:15:41.913Z,5.92
2023-02-04T12:16:56.328Z,4.93
2023-02-04T12:18:12.631Z,3.34
2023-02-04T12:19:20.117Z,5.86
2023-02-04T12:20:19.528Z,5.73
2023-02-04T12:21:19.988Z,5.06
2023-02-04T12:22:20.031Z,4.68
2023-02-04T12:23:18.547Z,6.09
2023-02-04T12:24:15.393Z,5.58
2023-02-04T12:25:16.899Z,4.93
2023-02-04T12:26:13.697Z,6.06
2023-02-04T12:27:10.504Z,5.88
2023-02-04T12:28:07.320Z,5.31
2023-02-04T12:29:08.444Z,6.35
2023-02-04T12:30:11.242Z,6.00
2023-02-04T12:31:18.441Z,6.14
2023-02-04T12:32:16.633Z,3.91
2023-02-04T12:33:37.328Z,3.73
2023-02-04T12:34:56.558Z,2.33
2023-02-04T12:35:53.525Z,4.73
2023-02-04T12:36:53.352Z,6.26
2023-02-04T12:37:53.020Z,5.61
2023-02-04T12:38:51.887Z,6.22
2023-02-04T12:39:48.657Z,6.00
2023-02-04T12:40:50.571Z,6.41
2023-02-04T12:41:52.722Z,5.07
2023-02-04T12:42:50.748Z,5.38
2023-02-04T12:43:55.083Z,3.38
2023-02-04T12:44:51.970Z,2.70
2023-02-04T12:45:51.639Z,5.95
2023-02-04T12:46:48.485Z,3.71
2023-02-04T12:47:45.517Z,6.15
2023-02-04T12:48:42.454Z,6.16
2023-02-04T12:49:46.841Z,6.25
2023-02-04T12:50:43.730Z,6.37
2023-02-04T12:51:40.620Z,5.35
2023-02-04T12:52:39.046Z,6.00
2023-02-04T12:53:35.872Z,5.69
2023-02-04T12:54:32.710Z,6.04
2023-02-04T12:55:34.152Z,3.64
2023-02-04T12:56:31.427Z,4.73
2023-02-04T12:57:31.006Z,5.95
2023-02-04T12:58:29.824Z,5.39
2023-02-04T12:59:29.251Z,6.19
2023-02-04T13:00:27.562Z,5.97
2023-02-04T13:01:26.311Z,4.55
2023-02-04T13:02:23.375Z,3.92
2023-02-04T13:03:53.737Z,2.53
2023-02-04T13:05:13.956Z,2.53
2023-02-04T13:06:13.690Z,3.89
2023-02-04T13:07:14.695Z,1.38
2023-02-04T13:08:23.247Z,3.21
2023-02-04T13:09:20.233Z,3.55
2023-02-04T13:10:20.493Z,2.25
2023-02-04T13:11:21.686Z,4.04
2023-02-04T13:12:20.731Z,5.71
2023-02-04T13:13:26.408Z,5.73
2023-02-04T13:14:23.164Z,4.47
2023-02-04T13:15:28.815Z,5.28
2023-02-04T13:16:26.565Z,2.24
2023-02-04T13:17:23.372Z,5.64
2023-02-04T13:18:20.139Z,4.34
2023-02-04T13:19:18.790Z,4.49
2023-02-04T13:20:20.118Z,4.60